sensor_id;sensor_type;location;lat;lon;timestamp;pressure;altitude;pressure_sealevel;temperature;humidity
59825;BME280;45703;50.898;6.054;2024-01-07T00:01:58;100051.38;;;1.52;100.00
59825;BME280;45703;50.898;6.054;2024-01-07T00:04:24;100050.72;;;1.50;100.00
59825;BME280;45703;50.898;6.054;2024-01-07T00:06:49;100055.00;;;1.51;100.00
59825;BME280;45703;50.898;6.054;2024-01-07T00:09:16;100053.88;;;1.46;100.00
59825;BME280;45703;50.898;6.054;2024-01-07T00:11:41;100048.44;;;1.47;100.00
59825;BME280;45703;50.898;6.054;2024-01-07T00:14:06;100051.59;;;1.43;100.00
59825;BME280;45703;50.898;6.054;2024-01-07T00:16:32;100059.16;;;1.38;100.00
59825;BME280;45703;50.898;6.054;2024-01-07T00:18:57;100067.69;;;1.48;100.00
59825;BME280;45703;50.898;6.054;2024-01-07T00:21:23;100060.78;;;1.47;100.00
59825;BME280;45703;50.898;6.054;2024-01-07T00:23:49;100064.22;;;1.47;100.00
59825;BME280;45703;50.898;6.054;2024-01-07T00:26:14;100075.56;;;1.48;100.00
59825;BME280;45703;50.898;6.054;2024-01-07T00:28:40;100074.75;;;1.47;100.00
59825;BME280;45703;50.898;6.054;2024-01-07T00:31:05;100070.31;;;1.48;100.00
59825;BME280;45703;50.898;6.054;2024-01-07T00:33:34;100065.22;;;1.38;100.00
59825;BME280;45703;50.898;6.054;2024-01-07T00:35:59;100062.91;;;1.43;100.00
59825;BME280;45703;50.898;6.054;2024-01-07T00:38:25;100070.81;;;1.43;100.00
59825;BME280;45703;50.898;6.054;2024-01-07T00:40:50;100071.66;;;1.36;100.00
59825;BME280;45703;50.898;6.054;2024-01-07T00:43:15;100066.88;;;1.39;100.00
59825;BME280;45703;50.898;6.054;2024-01-07T00:45:41;100069.81;;;1.44;100.00
59825;BME280;45703;50.898;6.054;2024-01-07T00:48:07;100072.28;;;1.46;100.00
59825;BME280;45703;50.898;6.054;2024-01-07T00:50:32;100077.22;;;1.49;100.00
59825;BME280;45703;50.898;6.054;2024-01-07T00:52:57;100072.63;;;1.43;100.00
59825;BME280;45703;50.898;6.054;2024-01-07T00:55:23;100067.22;;;1.37;100.00
59825;BME280;45703;50.898;6.054;2024-01-07T00:57:49;100071.31;;;1.39;100.00
59825;BME280;45703;50.898;6.054;2024-01-07T01:00:15;100072.47;;;1.37;100.00
59825;BME280;45703;50.898;6.054;2024-01-07T01:02:40;100078.56;;;1.37;100.00
59825;BME280;45703;50.898;6.054;2024-01-07T01:05:06;100086.25;;;1.46;100.00
59825;BME280;45703;50.898;6.054;2024-01-07T01:07:32;100083.50;;;1.40;100.00
59825;BME280;45703;50.898;6.054;2024-01-07T01:09:58;100081.84;;;1.39;100.00
59825;BME280;45703;50.898;6.054;2024-01-07T01:12:23;100084.16;;;1.34;100.00
59825;BME280;45703;50.898;6.054;2024-01-07T01:14:49;100095.47;;;1.42;100.00
59825;BME280;45703;50.898;6.054;2024-01-07T01:17:14;100095.47;;;1.42;100.00
59825;BME280;45703;50.898;6.054;2024-01-07T01:19:39;100093.69;;;1.35;100.00
59825;BME280;45703;50.898;6.054;2024-01-07T01:22:05;100098.94;;;1.35;100.00
59825;BME280;45703;50.898;6.054;2024-01-07T01:24:30;100103.34;;;1.42;100.00
59825;BME280;45703;50.898;6.054;2024-01-07T01:26:55;100101.41;;;1.37;100.00
59825;BME280;45703;50.898;6.054;2024-01-07T01:29:21;100102.56;;;1.34;100.00
59825;BME280;45703;50.898;6.054;2024-01-07T01:31:46;100112.09;;;1.35;100.00
59825;BME280;45703;50.898;6.054;2024-01-07T01:34:12;100108.78;;;1.41;100.00
59825;BME280;45703;50.898;6.054;2024-01-07T01:36:37;100118.16;;;1.36;100.00
59825;BME280;45703;50.898;6.054;2024-01-07T01:39:02;100115.53;;;1.43;100.00
59825;BME280;45703;50.898;6.054;2024-01-07T01:41:28;100121.28;;;1.47;100.00
59825;BME280;45703;50.898;6.054;2024-01-07T01:43:57;100110.13;;;1.37;100.00
59825;BME280;45703;50.898;6.054;2024-01-07T01:46:23;100126.88;;;1.44;100.00
59825;BME280;45703;50.898;6.054;2024-01-07T01:48:49;100127.22;;;1.41;100.00
59825;BME280;45703;50.898;6.054;2024-01-07T01:51:14;100127.22;;;1.41;100.00
59825;BME280;45703;50.898;6.054;2024-01-07T01:53:40;100133.94;;;1.43;100.00
59825;BME280;45703;50.898;6.054;2024-01-07T01:56:06;100133.94;;;1.36;100.00
59825;BME280;45703;50.898;6.054;2024-01-07T01:58:32;100124.25;;;1.36;100.00
59825;BME280;45703;50.898;6.054;2024-01-07T02:00:58;100131.50;;;1.34;100.00
59825;BME280;45703;50.898;6.054;2024-01-07T02:03:23;100125.06;;;1.44;100.00
59825;BME280;45703;50.898;6.054;2024-01-07T02:05:50;100145.44;;;1.42;100.00
59825;BME280;45703;50.898;6.054;2024-01-07T02:08:17;100138.72;;;1.40;100.00
59825;BME280;45703;50.898;6.054;2024-01-07T02:10:43;100141.00;;;1.43;100.00
59825;BME280;45703;50.898;6.054;2024-01-07T02:13:10;100137.06;;;1.39;100.00
59825;BME280;45703;50.898;6.054;2024-01-07T02:15:35;100150.03;;;1.40;100.00
59825;BME280;45703;50.898;6.054;2024-01-07T02:18:01;100151.53;;;1.43;100.00
59825;BME280;45703;50.898;6.054;2024-01-07T02:20:26;100139.53;;;1.33;100.00
59825;BME280;45703;50.898;6.054;2024-01-07T02:22:51;100150.88;;;1.33;100.00
59825;BME280;45703;50.898;6.054;2024-01-07T02:25:17;100143.00;;;1.33;100.00
59825;BME280;45703;50.898;6.054;2024-01-07T02:27:42;100150.88;;;1.33;100.00
59825;BME280;45703;50.898;6.054;2024-01-07T02:30:08;100149.25;;;1.32;100.00
59825;BME280;45703;50.898;6.054;2024-01-07T02:32:33;100160.56;;;1.33;100.00
59825;BME280;45703;50.898;6.054;2024-01-07T02:35:01;100149.91;;;1.34;100.00
59825;BME280;45703;50.898;6.054;2024-01-07T02:37:26;100142.97;;;1.25;100.00
59825;BME280;45703;50.898;6.054;2024-01-07T02:39:52;100157.47;;;1.29;100.00
59825;BME280;45703;50.898;6.054;2024-01-07T02:42:17;100155.13;;;1.26;100.00
59825;BME280;45703;50.898;6.054;2024-01-07T02:44:43;100162.38;;;1.32;100.00
59825;BME280;45703;50.898;6.054;2024-01-07T02:47:08;100165.34;;;1.29;100.00
59825;BME280;45703;50.898;6.054;2024-01-07T02:49:34;100165.00;;;1.32;100.00
59825;BME280;45703;50.898;6.054;2024-01-07T02:51:59;100168.31;;;1.34;100.00
59825;BME280;45703;50.898;6.054;2024-01-07T02:54:24;100168.31;;;1.34;100.00
59825;BME280;45703;50.898;6.054;2024-01-07T02:56:50;100170.59;;;1.37;100.00
59825;BME280;45703;50.898;6.054;2024-01-07T02:59:15;100165.81;;;1.33;100.00
59825;BME280;45703;50.898;6.054;2024-01-07T03:01:40;100167.78;;;1.31;100.00
59825;BME280;45703;50.898;6.054;2024-01-07T03:04:09;100172.25;;;1.30;100.00
59825;BME280;45703;50.898;6.054;2024-01-07T03:06:35;100164.38;;;1.30;100.00
59825;BME280;45703;50.898;6.054;2024-01-07T03:09:00;100171.59;;;1.36;100.00
59825;BME280;45703;50.898;6.054;2024-01-07T03:11:25;100167.66;;;1.40;100.00
59825;BME280;45703;50.898;6.054;2024-01-07T03:13:51;100168.28;;;1.42;100.00
59825;BME280;45703;50.898;6.054;2024-01-07T03:16:23;100166.00;;;1.39;100.00
59825;BME280;45703;50.898;6.054;2024-01-07T03:18:49;100174.53;;;1.41;100.00
59825;BME280;45703;50.898;6.054;2024-01-07T03:21:21;100175.19;;;1.43;100.00
59825;BME280;45703;50.898;6.054;2024-01-07T03:23:49;100178.16;;;1.40;100.00
59825;BME280;45703;50.898;6.054;2024-01-07T03:26:16;100183.44;;;1.40;100.00
59825;BME280;45703;50.898;6.054;2024-01-07T03:28:41;100183.09;;;1.43;100.00
59825;BME280;45703;50.898;6.054;2024-01-07T03:31:09;100179.47;;;1.44;100.00
59825;BME280;45703;50.898;6.054;2024-01-07T03:33:35;100174.88;;;1.46;100.00
59825;BME280;45703;50.898;6.054;2024-01-07T03:36:00;100179.47;;;1.44;100.00
59825;BME280;45703;50.898;6.054;2024-01-07T03:38:25;100176.19;;;1.42;100.00
59825;BME280;45703;50.898;6.054;2024-01-07T03:40:51;100179.47;;;1.44;100.00
59825;BME280;45703;50.898;6.054;2024-01-07T03:43:16;100175.69;;;1.38;100.00
59825;BME280;45703;50.898;6.054;2024-01-07T03:45:42;100184.41;;;1.39;100.00
59825;BME280;45703;50.898;6.054;2024-01-07T03:48:08;100178.97;;;1.40;100.00
59825;BME280;45703;50.898;6.054;2024-01-07T03:50:34;100189.34;;;1.42;100.00
59825;BME280;45703;50.898;6.054;2024-01-07T03:52:59;100183.44;;;1.40;100.00
59825;BME280;45703;50.898;6.054;2024-01-07T03:55:25;100190.00;;;1.44;100.00
59825;BME280;45703;50.898;6.054;2024-01-07T03:57:50;100198.22;;;1.49;100.00
59825;BME280;45703;50.898;6.054;2024-01-07T04:00:16;100187.03;;;1.47;100.00
59825;BME280;45703;50.898;6.054;2024-01-07T04:02:41;100187.38;;;1.44;100.00
59825;BME280;45703;50.898;6.054;2024-01-07T04:05:07;100193.94;;;1.40;100.00
59825;BME280;45703;50.898;6.054;2024-01-07T04:07:33;100204.78;;;1.45;100.00
59825;BME280;45703;50.898;6.054;2024-01-07T04:09:59;100205.78;;;1.44;100.00
59825;BME280;45703;50.898;6.054;2024-01-07T04:12:24;100202.16;;;1.45;100.00
59825;BME280;45703;50.898;6.054;2024-01-07T04:14:50;100196.41;;;1.41;100.00
59825;BME280;45703;50.898;6.054;2024-01-07T04:17:15;100211.03;;;1.44;100.00
59825;BME280;45703;50.898;6.054;2024-01-07T04:19:40;100211.03;;;1.44;100.00
59825;BME280;45703;50.898;6.054;2024-01-07T04:22:06;100212.16;;;1.41;100.00
59825;BME280;45703;50.898;6.054;2024-01-07T04:24:31;100213.66;;;1.44;100.00
59825;BME280;45703;50.898;6.054;2024-01-07T04:26:56;100206.25;;;1.32;100.00
59825;BME280;45703;50.898;6.054;2024-01-07T04:29:22;100210.06;;;1.37;100.00
59825;BME280;45703;50.898;6.054;2024-01-07T04:31:47;100207.09;;;1.32;100.00
59825;BME280;45703;50.898;6.054;2024-01-07T04:34:13;100214.97;;;1.32;100.00
59825;BME280;45703;50.898;6.054;2024-01-07T04:36:38;100208.69;;;1.25;100.00
59825;BME280;45703;50.898;6.054;2024-01-07T04:39:03;100217.09;;;1.29;100.00
59825;BME280;45703;50.898;6.054;2024-01-07T04:41:29;100219.22;;;1.25;100.00
59825;BME280;45703;50.898;6.054;2024-01-07T04:43:54;100225.81;;;1.29;100.00
59825;BME280;45703;50.898;6.054;2024-01-07T04:46:19;100213.81;;;1.27;100.00
59825;BME280;45703;50.898;6.054;2024-01-07T04:48:45;100231.22;;;1.28;100.00
59825;BME280;45703;50.898;6.054;2024-01-07T04:51:10;100228.59;;;1.28;100.00
59825;BME280;45703;50.898;6.054;2024-01-07T04:53:36;100227.75;;;1.27;100.00
59825;BME280;45703;50.898;6.054;2024-01-07T04:56:02;100229.59;;;1.27;100.00
59825;BME280;45703;50.898;6.054;2024-01-07T04:58:28;100232.72;;;1.30;100.00
59825;BME280;45703;50.898;6.054;2024-01-07T05:00:53;100237.81;;;1.32;100.00
59825;BME280;45703;50.898;6.054;2024-01-07T05:03:18;100259.16;;;1.29;100.00
59825;BME280;45703;50.898;6.054;2024-01-07T05:05:44;100237.31;;;1.28;100.00
59825;BME280;45703;50.898;6.054;2024-01-07T05:08:09;100246.84;;;1.29;100.00
59825;BME280;45703;50.898;6.054;2024-01-07T05:10:34;100249.78;;;1.26;100.00
59825;BME280;45703;50.898;6.054;2024-01-07T05:13:00;100249.78;;;1.26;100.00
59825;BME280;45703;50.898;6.054;2024-01-07T05:15:30;100255.38;;;1.23;100.00
59825;BME280;45703;50.898;6.054;2024-01-07T05:17:55;100262.28;;;1.24;100.00
59825;BME280;45703;50.898;6.054;2024-01-07T05:20:21;100250.75;;;1.17;100.00
59825;BME280;45703;50.898;6.054;2024-01-07T05:22:46;100256.69;;;1.19;100.00
59825;BME280;45703;50.898;6.054;2024-01-07T05:25:11;100263.25;;;1.15;100.00
59825;BME280;45703;50.898;6.054;2024-01-07T05:27:37;100276.25;;;1.17;100.00
59825;BME280;45703;50.898;6.054;2024-01-07T05:30:03;100261.78;;;1.13;100.00
59825;BME280;45703;50.898;6.054;2024-01-07T05:32:28;100268.34;;;1.09;100.00
59825;BME280;45703;50.898;6.054;2024-01-07T05:34:54;100279.19;;;1.06;100.00
59825;BME280;45703;50.898;6.054;2024-01-07T05:37:19;100286.75;;;1.09;100.00
59825;BME280;45703;50.898;6.054;2024-01-07T05:39:44;100288.53;;;1.08;100.00
59825;BME280;45703;50.898;6.054;2024-01-07T05:42:10;100287.41;;;1.11;100.00
59825;BME280;45703;50.898;6.054;2024-01-07T05:44:35;100279.66;;;1.09;100.00
59825;BME280;45703;50.898;6.054;2024-01-07T05:47:01;100293.78;;;1.08;100.00
59825;BME280;45703;50.898;6.054;2024-01-07T05:49:26;100287.06;;;1.06;100.00
59825;BME280;45703;50.898;6.054;2024-01-07T05:51:52;100296.41;;;1.08;100.00
59825;BME280;45703;50.898;6.054;2024-01-07T05:54:17;100301.53;;;1.10;100.00
59825;BME280;45703;50.898;6.054;2024-01-07T05:56:43;100297.72;;;1.04;100.00
59825;BME280;45703;50.898;6.054;2024-01-07T05:59:08;100298.72;;;1.11;100.00
59825;BME280;45703;50.898;6.054;2024-01-07T06:01:34;100312.53;;;1.13;100.00
59825;BME280;45703;50.898;6.054;2024-01-07T06:04:00;100306.25;;;1.06;100.00
59825;BME280;45703;50.898;6.054;2024-01-07T06:06:25;100314.50;;;1.11;100.00
59825;BME280;45703;50.898;6.054;2024-01-07T06:08:51;100313.50;;;1.12;100.00
59825;BME280;45703;50.898;6.054;2024-01-07T06:11:16;100327.31;;;1.14;100.00
59825;BME280;45703;50.898;6.054;2024-01-07T06:13:45;100330.59;;;1.08;100.00
59825;BME280;45703;50.898;6.054;2024-01-07T06:16:10;100325.50;;;1.07;100.00
59825;BME280;45703;50.898;6.054;2024-01-07T06:18:36;100327.97;;;1.08;100.00
59825;BME280;45703;50.898;6.054;2024-01-07T06:21:01;100334.88;;;1.09;100.00
59825;BME280;45703;50.898;6.054;2024-01-07T06:23:26;100331.75;;;1.06;100.00
59825;BME280;45703;50.898;6.054;2024-01-07T06:25:52;100338.13;;;1.03;100.00
59825;BME280;45703;50.898;6.054;2024-01-07T06:28:17;100343.06;;;1.06;100.00
59825;BME280;45703;50.898;6.054;2024-01-07T06:30:42;100332.06;;;1.03;100.00
59825;BME280;45703;50.898;6.054;2024-01-07T06:33:08;100333.38;;;1.07;100.00
59825;BME280;45703;50.898;6.054;2024-01-07T06:35:33;100343.41;;;1.11;100.00
59825;BME280;45703;50.898;6.054;2024-01-07T06:37:59;100341.09;;;1.08;100.00
59825;BME280;45703;50.898;6.054;2024-01-07T06:40:25;100342.09;;;1.07;100.00
59825;BME280;45703;50.898;6.054;2024-01-07T06:42:50;100351.63;;;1.08;100.00
59825;BME280;45703;50.898;6.054;2024-01-07T06:45:16;100358.53;;;1.09;100.00
59825;BME280;45703;50.898;6.054;2024-01-07T06:47:42;100345.38;;;1.09;100.00
59825;BME280;45703;50.898;6.054;2024-01-07T06:50:09;100351.28;;;1.11;100.00
59825;BME280;45703;50.898;6.054;2024-01-07T06:52:35;100353.25;;;1.09;100.00
59825;BME280;45703;50.898;6.054;2024-01-07T06:55:00;100357.72;;;1.09;100.00
59825;BME280;45703;50.898;6.054;2024-01-07T06:57:26;100365.44;;;1.10;100.00
59825;BME280;45703;50.898;6.054;2024-01-07T06:59:51;100373.97;;;1.12;100.00
59825;BME280;45703;50.898;6.054;2024-01-07T07:02:17;100375.63;;;1.13;100.00
59825;BME280;45703;50.898;6.054;2024-01-07T07:04:42;100377.09;;;1.08;100.00
59825;BME280;45703;50.898;6.054;2024-01-07T07:07:08;100371.00;;;1.07;100.00
59825;BME280;45703;50.898;6.054;2024-01-07T07:09:33;100380.06;;;1.13;100.00
59825;BME280;45703;50.898;6.054;2024-01-07T07:11:59;100386.13;;;1.13;100.00
59825;BME280;45703;50.898;6.054;2024-01-07T07:14:25;100390.91;;;1.10;100.00
59825;BME280;45703;50.898;6.054;2024-01-07T07:16:50;100396.00;;;1.11;100.00
59825;BME280;45703;50.898;6.054;2024-01-07T07:19:15;100397.47;;;1.06;100.00
59825;BME280;45703;50.898;6.054;2024-01-07T07:21:43;100406.91;;;0.99;100.00
59825;BME280;45703;50.898;6.054;2024-01-07T07:24:09;100417.59;;;0.97;100.00
59825;BME280;45703;50.898;6.054;2024-01-07T07:26:34;100410.72;;;0.96;100.00
59825;BME280;45703;50.898;6.054;2024-01-07T07:29:01;100420.69;;;0.93;100.00
59825;BME280;45703;50.898;6.054;2024-01-07T07:31:27;100424.97;;;0.94;100.00
59825;BME280;45703;50.898;6.054;2024-01-07T07:33:52;100430.22;;;0.94;100.00
59825;BME280;45703;50.898;6.054;2024-01-07T07:36:17;100428.75;;;0.91;100.00
59825;BME280;45703;50.898;6.054;2024-01-07T07:38:43;100440.91;;;0.92;100.00
59825;BME280;45703;50.898;6.054;2024-01-07T07:41:08;100443.19;;;0.87;100.00
59825;BME280;45703;50.898;6.054;2024-01-07T07:43:34;100447.09;;;0.83;100.00
59825;BME280;45703;50.898;6.054;2024-01-07T07:45:59;100460.28;;;0.91;100.00
59825;BME280;45703;50.898;6.054;2024-01-07T07:48:26;100457.34;;;0.94;100.00
59825;BME280;45703;50.898;6.054;2024-01-07T07:50:53;100457.28;;;0.86;100.00
59825;BME280;45703;50.898;6.054;2024-01-07T07:53:18;100459.91;;;0.86;100.00
59825;BME280;45703;50.898;6.054;2024-01-07T07:55:44;100473.88;;;0.87;100.00
59825;BME280;45703;50.898;6.054;2024-01-07T07:58:09;100478.00;;;0.89;100.00
59825;BME280;45703;50.898;6.054;2024-01-07T08:00:34;100480.78;;;0.88;100.00
59825;BME280;45703;50.898;6.054;2024-01-07T08:03:00;100478.00;;;0.89;100.00
59825;BME280;45703;50.898;6.054;2024-01-07T08:05:25;100476.34;;;0.88;100.00
59825;BME280;45703;50.898;6.054;2024-01-07T08:07:51;100481.94;;;0.85;100.00
59825;BME280;45703;50.898;6.054;2024-01-07T08:10:16;100489.94;;;0.84;100.00
59825;BME280;45703;50.898;6.054;2024-01-07T08:12:41;100492.75;;;0.82;100.00
59825;BME280;45703;50.898;6.054;2024-01-07T08:15:07;100489.13;;;0.83;100.00
59825;BME280;45703;50.898;6.054;2024-01-07T08:17:33;100495.88;;;0.86;100.00
59825;BME280;45703;50.898;6.054;2024-01-07T08:19:58;100496.72;;;0.86;100.00
59825;BME280;45703;50.898;6.054;2024-01-07T08:22:24;100508.56;;;0.90;100.00
59825;BME280;45703;50.898;6.054;2024-01-07T08:24:49;100504.91;;;0.83;100.00
59825;BME280;45703;50.898;6.054;2024-01-07T08:27:15;100510.81;;;0.85;100.00
59825;BME280;45703;50.898;6.054;2024-01-07T08:29:44;100505.72;;;0.84;100.00
59825;BME280;45703;50.898;6.054;2024-01-07T08:32:09;100507.53;;;0.83;100.00
59825;BME280;45703;50.898;6.054;2024-01-07T08:34:35;100519.59;;;0.76;100.00
59825;BME280;45703;50.898;6.054;2024-01-07T08:37:00;100519.09;;;0.73;100.00
59825;BME280;45703;50.898;6.054;2024-01-07T08:39:25;100514.66;;;0.73;100.00
59825;BME280;45703;50.898;6.054;2024-01-07T08:41:53;100528.75;;;0.72;100.00
59825;BME280;45703;50.898;6.054;2024-01-07T08:44:19;100524.84;;;0.76;100.00
59825;BME280;45703;50.898;6.054;2024-01-07T08:46:44;100528.19;;;0.78;100.00
59825;BME280;45703;50.898;6.054;2024-01-07T08:49:10;100537.25;;;0.84;100.00
59825;BME280;45703;50.898;6.054;2024-01-07T08:51:36;100535.38;;;0.76;100.00
59825;BME280;45703;50.898;6.054;2024-01-07T08:54:01;100540.19;;;0.81;100.00
59825;BME280;45703;50.898;6.054;2024-01-07T08:56:27;100545.44;;;0.81;100.00
59825;BME280;45703;50.898;6.054;2024-01-07T08:58:52;100535.66;;;0.73;100.00
59825;BME280;45703;50.898;6.054;2024-01-07T09:01:17;100537.47;;;0.73;100.00
59825;BME280;45703;50.898;6.054;2024-01-07T09:03:43;100536.50;;;0.74;100.00
59825;BME280;45703;50.898;6.054;2024-01-07T09:06:08;100549.78;;;0.72;100.00
59825;BME280;45703;50.898;6.054;2024-01-07T09:08:34;100553.56;;;0.70;100.00
59825;BME280;45703;50.898;6.054;2024-01-07T09:11:00;100559.25;;;0.65;100.00
59825;BME280;45703;50.898;6.054;2024-01-07T09:13:27;100556.91;;;0.62;100.00
59825;BME280;45703;50.898;6.054;2024-01-07T09:15:52;100550.13;;;0.52;100.00
59825;BME280;45703;50.898;6.054;2024-01-07T09:18:18;100564.44;;;0.57;100.00
59825;BME280;45703;50.898;6.054;2024-01-07T09:20:44;100558.19;;;0.58;100.00
59825;BME280;45703;50.898;6.054;2024-01-07T09:23:09;100564.28;;;0.59;100.00
59825;BME280;45703;50.898;6.054;2024-01-07T09:25:34;100566.25;;;0.57;100.00
59825;BME280;45703;50.898;6.054;2024-01-07T09:28:00;100564.44;;;0.57;100.00
59825;BME280;45703;50.898;6.054;2024-01-07T09:30:25;100574.81;;;0.59;100.00
59825;BME280;45703;50.898;6.054;2024-01-07T09:32:51;100587.09;;;0.58;100.00
59825;BME280;45703;50.898;6.054;2024-01-07T09:35:16;100581.47;;;0.53;100.00
59825;BME280;45703;50.898;6.054;2024-01-07T09:37:42;100591.66;;;0.56;100.00
59825;BME280;45703;50.898;6.054;2024-01-07T09:40:08;100582.75;;;0.49;100.00
59825;BME280;45703;50.898;6.054;2024-01-07T09:42:33;100579.13;;;0.50;100.00
59825;BME280;45703;50.898;6.054;2024-01-07T09:45:03;100591.16;;;0.53;100.00
59825;BME280;45703;50.898;6.054;2024-01-07T09:47:29;100595.88;;;0.49;100.00
59825;BME280;45703;50.898;6.054;2024-01-07T09:49:55;100590.88;;;0.56;100.00
59825;BME280;45703;50.898;6.054;2024-01-07T09:52:20;100580.94;;;0.50;100.00
59825;BME280;45703;50.898;6.054;2024-01-07T09:54:51;100593.91;;;0.51;100.00
59825;BME280;45703;50.898;6.054;2024-01-07T09:57:16;100597.81;;;0.47;100.00
59825;BME280;45703;50.898;6.054;2024-01-07T09:59:42;100594.06;;;0.50;100.00
59825;BME280;45703;50.898;6.054;2024-01-07T10:02:08;100608.41;;;0.55;100.00
59825;BME280;45703;50.898;6.054;2024-01-07T10:04:34;100603.44;;;0.52;100.00
59825;BME280;45703;50.898;6.054;2024-01-07T10:07:00;100603.31;;;0.54;100.00
59825;BME280;45703;50.898;6.054;2024-01-07T10:09:32;100607.19;;;0.50;100.00
59825;BME280;45703;50.898;6.054;2024-01-07T10:11:58;100606.97;;;0.43;100.00
59825;BME280;45703;50.898;6.054;2024-01-07T10:14:23;100608.91;;;0.41;100.00
59825;BME280;45703;50.898;6.054;2024-01-07T10:16:51;100606.81;;;0.45;100.00
59825;BME280;45703;50.898;6.054;2024-01-07T10:19:23;100605.03;;;0.45;100.00
59825;BME280;45703;50.898;6.054;2024-01-07T10:22:03;100610.78;;;0.49;100.00
59825;BME280;45703;50.898;6.054;2024-01-07T10:24:36;100615.06;;;0.50;100.00
59825;BME280;45703;50.898;6.054;2024-01-07T10:27:03;100607.06;;;0.51;100.00
59825;BME280;45703;50.898;6.054;2024-01-07T10:29:29;100614.63;;;0.54;100.00
59825;BME280;45703;50.898;6.054;2024-01-07T10:31:58;100612.38;;;0.59;100.00
59825;BME280;45703;50.898;6.054;2024-01-07T10:34:24;100610.72;;;0.58;100.00
59825;BME280;45703;50.898;6.054;2024-01-07T10:36:52;100628.81;;;0.61;100.00
59825;BME280;45703;50.898;6.054;2024-01-07T10:39:19;100631.06;;;0.56;100.00
59825;BME280;45703;50.898;6.054;2024-01-07T10:41:46;100623.34;;;0.55;100.00
59825;BME280;45703;50.898;6.054;2024-01-07T10:44:12;100625.75;;;0.48;100.00
59825;BME280;45703;50.898;6.054;2024-01-07T10:46:39;100624.59;;;0.51;100.00
59825;BME280;45703;50.898;6.054;2024-01-07T10:49:14;100616.88;;;0.49;100.00
59825;BME280;45703;50.898;6.054;2024-01-07T10:51:43;100621.72;;;0.54;100.00
59825;BME280;45703;50.898;6.054;2024-01-07T10:54:13;100631.38;;;0.53;100.00
59825;BME280;45703;50.898;6.054;2024-01-07T10:56:42;100636.25;;;0.48;100.00
59825;BME280;45703;50.898;6.054;2024-01-07T10:59:09;100644.13;;;0.48;100.00
59825;BME280;45703;50.898;6.054;2024-01-07T11:01:35;100646.19;;;0.45;100.00
59825;BME280;45703;50.898;6.054;2024-01-07T11:04:13;100627.59;;;0.38;100.00
59825;BME280;45703;50.898;6.054;2024-01-07T11:06:49;100635.09;;;0.33;100.00
59825;BME280;45703;50.898;6.054;2024-01-07T11:09:36;100642.38;;;0.39;100.00
59825;BME280;45703;50.898;6.054;2024-01-07T11:12:03;100644.41;;;0.45;100.00
59825;BME280;45703;50.898;6.054;2024-01-07T11:17:12;100640.81;;;0.46;100.00
59825;BME280;45703;50.898;6.054;2024-01-07T11:19:50;100642.91;;;0.43;100.00
59825;BME280;45703;50.898;6.054;2024-01-07T11:24:53;100648.00;;;0.44;100.00
59825;BME280;45703;50.898;6.054;2024-01-07T11:27:25;100641.63;;;0.47;100.00
59825;BME280;45703;50.898;6.054;2024-01-07T11:30:07;100648.69;;;0.46;100.00
59825;BME280;45703;50.898;6.054;2024-01-07T11:32:33;100648.44;;;0.40;100.00
59825;BME280;45703;50.898;6.054;2024-01-07T11:35:00;100661.16;;;0.44;100.00
59825;BME280;45703;50.898;6.054;2024-01-07T11:37:26;100662.41;;;0.40;100.00
59825;BME280;45703;50.898;6.054;2024-01-07T11:39:55;100656.31;;;0.40;100.00
59825;BME280;45703;50.898;6.054;2024-01-07T11:42:23;100654.38;;;0.42;100.00
59825;BME280;45703;50.898;6.054;2024-01-07T11:44:51;100658.44;;;0.36;100.00
59825;BME280;45703;50.898;6.054;2024-01-07T11:47:17;100662.41;;;0.40;100.00
59825;BME280;45703;50.898;6.054;2024-01-07T11:49:43;100657.47;;;0.37;100.00
59825;BME280;45703;50.898;6.054;2024-01-07T11:52:09;100663.53;;;0.38;100.00
59825;BME280;45703;50.898;6.054;2024-01-07T11:54:38;100660.09;;;0.37;100.00
59825;BME280;45703;50.898;6.054;2024-01-07T11:57:07;100662.78;;;0.45;100.00
59825;BME280;45703;50.898;6.054;2024-01-07T11:59:34;100660.19;;;0.45;100.00
59825;BME280;45703;50.898;6.054;2024-01-07T12:02:00;100663.38;;;0.39;100.00
59825;BME280;45703;50.898;6.054;2024-01-07T12:04:26;100663.91;;;0.43;100.00
59825;BME280;45703;50.898;6.054;2024-01-07T12:06:52;100663.38;;;0.39;100.00
59825;BME280;45703;50.898;6.054;2024-01-07T12:09:17;100658.44;;;0.36;100.00
59825;BME280;45703;50.898;6.054;2024-01-07T12:11:43;100662.84;;;0.36;100.00
59825;BME280;45703;50.898;6.054;2024-01-07T12:14:09;100666.44;;;0.35;100.00
59825;BME280;45703;50.898;6.054;2024-01-07T12:16:36;100665.91;;;0.31;100.00
59825;BME280;45703;50.898;6.054;2024-01-07T12:19:02;100660.38;;;0.34;100.00
59825;BME280;45703;50.898;6.054;2024-01-07T12:21:27;100671.97;;;0.32;100.00
59825;BME280;45703;50.898;6.054;2024-01-07T12:23:55;100674.22;;;0.27;100.00
59825;BME280;45703;50.898;6.054;2024-01-07T12:26:25;100664.56;;;0.27;100.00
59825;BME280;45703;50.898;6.054;2024-01-07T12:28:57;100674.78;;;0.30;100.00
59825;BME280;45703;50.898;6.054;2024-01-07T12:31:28;100673.13;;;0.29;100.00
59825;BME280;45703;50.898;6.054;2024-01-07T12:33:53;100671.56;;;0.36;100.00
59825;BME280;45703;50.898;6.054;2024-01-07T12:36:22;100678.00;;;0.42;100.00
59825;BME280;45703;50.898;6.054;2024-01-07T12:38:48;100675.00;;;0.37;100.00
59825;BME280;45703;50.898;6.054;2024-01-07T12:41:14;100678.47;;;0.37;100.00
59825;BME280;45703;50.898;6.054;2024-01-07T12:43:39;100690.03;;;0.44;100.00
59825;BME280;45703;50.898;6.054;2024-01-07T12:46:04;100684.09;;;0.42;100.00
59825;BME280;45703;50.898;6.054;2024-01-07T12:48:31;100693.63;;;0.43;100.00
59825;BME280;45703;50.898;6.054;2024-01-07T12:50:57;100701.94;;;0.39;100.00